createdAt,value
2019-06-15T00:01:22.381Z,99179.00
2019-06-15T00:03:53.012Z,99172.00
2019-06-15T00:06:23.682Z,99159.00
2019-06-15T00:08:54.240Z,99146.00
2019-06-15T00:11:24.811Z,99147.00
2019-06-15T00:13:55.403Z,99140.00
2019-06-15T00:16:25.993Z,99125.00
2019-06-15T00:18:56.494Z,99114.00
2019-06-15T00:21:27.068Z,99129.00
2019-06-15T00:23:57.633Z,99112.00
2019-06-15T00:26:28.207Z,99123.00
2019-06-15T00:28:58.732Z,99128.00
2019-06-15T00:31:29.459Z,99125.00
2019-06-15T00:34:00.023Z,99119.00
2019-06-15T00:36:30.646Z,99126.00
2019-06-15T00:39:01.231Z,99135.00
2019-06-15T00:41:34.498Z,99131.00
2019-06-15T00:44:05.237Z,99111.00
2019-06-15T00:46:35.770Z,99111.00
2019-06-15T00:49:06.319Z,99114.00
2019-06-15T00:51:36.903Z,99111.00
2019-06-15T00:54:11.059Z,99116.00
2019-06-15T00:56:41.639Z,99132.00
2019-06-15T00:59:12.163Z,99148.00
2019-06-15T01:01:42.732Z,99187.00
2019-06-15T01:04:13.415Z,99202.00
2019-06-15T01:06:43.979Z,99182.00
2019-06-15T01:09:14.507Z,99165.00
2019-06-15T01:11:46.290Z,99173.00
2019-06-15T01:14:16.925Z,99187.00
2019-06-15T01:16:47.456Z,99171.00
2019-06-15T01:19:18.023Z,99153.00
2019-06-15T01:21:48.602Z,99135.00
2019-06-15T01:24:19.177Z,99136.00
2019-06-15T01:26:49.707Z,99139.00
2019-06-15T01:29:20.262Z,99132.00
2019-06-15T01:31:50.893Z,99135.00
2019-06-15T01:34:21.457Z,99120.00
2019-06-15T01:36:52.022Z,99102.00
2019-06-15T01:39:22.610Z,99094.00
2019-06-15T01:41:53.169Z,99080.00
2019-06-15T01:44:23.709Z,99087.00
2019-06-15T01:46:54.270Z,99090.00
2019-06-15T01:49:24.841Z,99094.00
2019-06-15T01:51:55.403Z,99079.00
2019-06-15T01:54:25.992Z,99084.00
2019-06-15T01:56:56.655Z,99080.00
2019-06-15T01:59:28.812Z,99069.00
2019-06-15T02:01:59.344Z,99061.00
2019-06-15T02:04:29.883Z,99065.00
2019-06-15T02:07:00.533Z,99063.00
2019-06-15T02:09:31.110Z,99065.00
2019-06-15T02:12:01.631Z,99064.00
2019-06-15T02:14:32.298Z,99057.00
2019-06-15T02:17:02.808Z,99040.00
2019-06-15T02:19:33.425Z,99041.00
2019-06-15T02:22:03.991Z,99027.00
2019-06-15T02:24:34.767Z,99023.00
2019-06-15T02:27:05.498Z,99013.00
2019-06-15T02:29:36.074Z,99003.00
2019-06-15T02:32:08.223Z,98991.00
2019-06-15T02:34:40.589Z,98987.00
2019-06-15T02:37:12.229Z,98983.00
2019-06-15T02:39:42.805Z,98972.00
2019-06-15T02:42:13.363Z,98980.00
2019-06-15T02:44:43.920Z,99006.00
2019-06-15T02:47:14.546Z,98993.00
2019-06-15T02:49:45.121Z,99004.00
2019-06-15T02:52:15.876Z,98992.00
2019-06-15T02:54:46.809Z,98982.00
2019-06-15T02:57:17.321Z,98980.00
2019-06-15T02:59:47.862Z,98968.00
2019-06-15T03:02:18.405Z,98977.00
2019-06-15T03:04:48.986Z,98985.00
2019-06-15T03:07:19.930Z,98983.00
2019-06-15T03:09:50.713Z,98971.00
2019-06-15T03:12:21.921Z,98968.00
2019-06-15T03:14:54.006Z,98977.00
2019-06-15T03:17:24.554Z,98971.00
2019-06-15T03:19:55.123Z,98966.00
2019-06-15T03:22:25.683Z,98979.00
2019-06-15T03:24:56.275Z,98969.00
2019-06-15T03:27:26.829Z,98968.00
2019-06-15T03:29:57.390Z,98969.00
2019-06-15T03:32:29.798Z,98965.00
2019-06-15T03:35:00.363Z,98957.00
2019-06-15T03:37:30.923Z,98954.00
2019-06-15T03:40:01.535Z,98962.00
2019-06-15T03:42:32.146Z,98955.00
2019-06-15T03:45:02.812Z,98957.00
2019-06-15T03:47:33.359Z,98962.00
2019-06-15T03:50:04.151Z,98956.00
2019-06-15T03:52:34.688Z,98953.00
2019-06-15T03:55:06.827Z,98952.00
2019-06-15T03:57:38.696Z,98945.00
2019-06-15T04:00:46.114Z,98943.00
2019-06-15T04:03:17.122Z,98950.00
2019-06-15T04:05:47.746Z,98938.00
2019-06-15T04:08:18.252Z,98941.00
2019-06-15T04:10:48.864Z,98942.00
2019-06-15T04:13:19.404Z,98939.00
2019-06-15T04:15:49.986Z,98932.00
2019-06-15T04:18:20.510Z,98936.00
2019-06-15T04:20:51.062Z,98947.00
2019-06-15T04:23:21.645Z,98949.00
2019-06-15T04:25:52.186Z,98946.00
2019-06-15T04:28:22.703Z,98943.00
2019-06-15T04:30:53.251Z,98945.00
2019-06-15T04:33:23.959Z,98951.00
2019-06-15T04:35:55.975Z,98947.00
2019-06-15T04:38:27.025Z,98951.00
2019-06-15T04:40:58.128Z,98944.00
2019-06-15T04:43:28.660Z,98944.00
2019-06-15T04:46:00.453Z,98948.00
2019-06-15T04:48:30.980Z,98943.00
2019-06-15T04:51:01.559Z,98945.00
2019-06-15T04:53:32.141Z,98951.00
2019-06-15T04:56:03.768Z,98947.00
2019-06-15T04:58:34.313Z,98944.00
2019-06-15T05:01:05.067Z,98950.00
2019-06-15T05:03:35.722Z,98945.00
2019-06-15T05:06:06.699Z,98953.00
2019-06-15T05:08:39.046Z,98943.00
2019-06-15T05:11:09.618Z,98936.00
2019-06-15T05:13:40.167Z,98940.00
2019-06-15T05:16:10.753Z,98933.00
2019-06-15T05:18:41.305Z,98932.00
2019-06-15T05:21:11.898Z,98932.00
2019-06-15T05:23:42.412Z,98938.00
2019-06-15T05:26:12.996Z,98927.00
2019-06-15T05:28:43.550Z,98926.00
2019-06-15T05:31:14.219Z,98931.00
2019-06-15T05:33:44.779Z,98926.00
2019-06-15T05:36:16.072Z,98930.00
2019-06-15T05:38:46.624Z,98937.00
2019-06-15T05:41:17.201Z,98933.00
2019-06-15T05:43:47.849Z,98933.00
2019-06-15T05:46:19.253Z,98931.00
2019-06-15T05:48:52.321Z,98937.00
2019-06-15T05:51:22.908Z,98933.00
2019-06-15T05:53:54.510Z,98924.00
2019-06-15T05:56:25.268Z,98934.00
2019-06-15T05:58:55.827Z,98942.00
2019-06-15T06:01:26.435Z,98945.00
2019-06-15T06:03:59.264Z,98951.00
2019-06-15T06:06:29.935Z,98957.00
2019-06-15T06:09:00.485Z,98952.00
2019-06-15T06:11:31.103Z,98949.00
2019-06-15T06:14:01.648Z,98940.00
2019-06-15T06:16:32.358Z,98951.00
2019-06-15T06:19:03.735Z,98942.00
2019-06-15T06:21:34.260Z,98950.00
2019-06-15T06:24:05.112Z,98943.00
2019-06-15T06:26:35.663Z,98937.00
2019-06-15T06:29:07.824Z,98940.00
2019-06-15T06:31:38.379Z,98939.00
2019-06-15T06:34:09.019Z,98943.00
2019-06-15T06:36:39.550Z,98945.00
2019-06-15T06:39:10.182Z,98953.00
2019-06-15T06:41:40.733Z,98945.00
2019-06-15T06:44:11.312Z,98944.00
2019-06-15T06:46:41.864Z,98941.00
2019-06-15T06:49:13.322Z,98951.00
2019-06-15T06:51:43.977Z,98948.00
2019-06-15T06:54:16.119Z,98938.00
2019-06-15T06:56:46.647Z,98940.00
2019-06-15T06:59:17.256Z,98938.00
2019-06-15T07:01:47.825Z,98939.00
2019-06-15T07:04:18.540Z,98940.00
2019-06-15T07:06:49.212Z,98947.00
2019-06-15T07:09:19.927Z,98941.00
2019-06-15T07:11:50.467Z,98939.00
2019-06-15T07:14:21.050Z,98946.00
2019-06-15T07:16:51.669Z,98940.00
2019-06-15T07:19:22.250Z,98948.00
2019-06-15T07:21:52.812Z,98957.00
2019-06-15T07:24:24.585Z,98953.00
2019-06-15T07:26:55.161Z,98951.00
2019-06-15T07:29:25.793Z,98967.00
2019-06-15T07:31:57.790Z,98967.00
2019-06-15T07:34:28.382Z,98968.00
2019-06-15T07:37:01.592Z,98959.00
2019-06-15T07:39:31.228Z,98961.00
2019-06-15T07:42:01.837Z,98962.00
2019-06-15T07:44:32.518Z,98962.00
2019-06-15T07:47:03.141Z,98972.00
2019-06-15T07:49:35.227Z,98971.00
2019-06-15T07:52:05.846Z,98975.00
2019-06-15T07:54:36.420Z,98973.00
2019-06-15T07:57:06.979Z,98978.00
2019-06-15T07:59:37.557Z,98976.00
2019-06-15T08:02:08.496Z,98971.00
2019-06-15T08:04:39.102Z,98974.00
2019-06-15T08:07:09.891Z,98970.00
2019-06-15T08:09:41.834Z,98970.00
2019-06-15T08:12:12.465Z,98976.00
2019-06-15T08:14:43.157Z,98974.00
2019-06-15T08:17:15.331Z,98970.00
2019-06-15T08:19:46.137Z,98981.00
2019-06-15T08:22:17.167Z,98971.00
2019-06-15T08:24:47.793Z,98977.00
2019-06-15T08:27:18.586Z,98978.00
2019-06-15T08:29:49.532Z,98975.00
2019-06-15T08:32:20.095Z,98975.00
2019-06-15T08:34:51.766Z,98973.00
2019-06-15T08:37:22.311Z,98974.00
2019-06-15T08:39:52.894Z,98984.00
2019-06-15T08:42:23.600Z,98983.00
2019-06-15T08:44:54.196Z,98992.00
2019-06-15T08:47:24.787Z,98996.00
2019-06-15T08:49:55.621Z,98998.00
2019-06-15T08:52:26.192Z,98993.00
2019-06-15T08:54:56.791Z,98990.00
2019-06-15T08:57:27.319Z,98993.00
2019-06-15T08:59:58.012Z,98991.00
2019-06-15T09:02:28.611Z,98985.00
2019-06-15T09:05:00.308Z,98995.00
2019-06-15T09:07:32.063Z,98997.00
2019-06-15T09:10:02.667Z,98989.00
2019-06-15T09:12:34.322Z,98996.00
2019-06-15T09:15:05.906Z,98996.00
2019-06-15T09:17:38.062Z,99003.00
2019-06-15T09:20:10.000Z,99007.00
2019-06-15T09:22:40.963Z,99007.00
2019-06-15T09:25:12.220Z,99012.00
2019-06-15T09:27:42.954Z,99009.00
2019-06-15T09:30:15.281Z,99007.00
2019-06-15T09:32:45.844Z,99013.00
2019-06-15T09:35:16.527Z,99013.00
2019-06-15T09:37:47.116Z,99032.00
2019-06-15T09:40:18.768Z,99033.00
2019-06-15T09:42:49.390Z,99033.00
2019-06-15T09:45:20.038Z,99027.00
2019-06-15T09:47:50.627Z,99032.00
2019-06-15T09:50:21.307Z,99038.00
2019-06-15T09:52:51.865Z,99039.00
2019-06-15T09:55:22.452Z,99037.00
2019-06-15T09:57:52.997Z,99034.00
2019-06-15T10:00:24.055Z,99037.00
2019-06-15T10:02:54.797Z,99036.00
2019-06-15T10:05:25.384Z,99034.00
2019-06-15T10:07:57.054Z,99036.00
2019-06-15T10:10:27.631Z,99041.00
2019-06-15T10:12:58.176Z,99027.00
2019-06-15T10:15:28.820Z,99039.00
2019-06-15T10:17:59.760Z,99042.00
2019-06-15T10:20:30.299Z,99052.00
2019-06-15T10:23:01.005Z,99054.00
2019-06-15T10:25:31.597Z,99054.00
2019-06-15T10:28:02.314Z,99056.00
2019-06-15T10:30:32.898Z,99057.00
2019-06-15T10:33:04.603Z,99055.00
2019-06-15T10:35:36.257Z,99063.00
2019-06-15T10:38:06.859Z,99073.00
2019-06-15T10:40:37.474Z,99070.00
2019-06-15T10:43:08.037Z,99079.00
2019-06-15T10:45:38.620Z,99077.00
2019-06-15T10:48:09.285Z,99089.00
2019-06-15T10:50:40.826Z,99085.00
2019-06-15T10:53:11.542Z,99095.00
2019-06-15T10:55:42.258Z,99086.00
2019-06-15T10:58:12.875Z,99094.00
2019-06-15T11:00:44.164Z,99091.00
2019-06-15T11:03:16.312Z,99098.00
2019-06-15T11:05:46.862Z,99099.00
2019-06-15T11:08:17.658Z,99100.00
2019-06-15T11:11:21.681Z,99104.00
2019-06-15T11:13:52.012Z,99109.00
2019-06-15T11:16:22.858Z,99111.00
2019-06-15T11:18:53.437Z,99114.00
2019-06-15T11:21:23.991Z,99110.00
2019-06-15T11:23:55.878Z,99118.00
2019-06-15T11:26:26.516Z,99117.00
2019-06-15T11:28:57.600Z,99120.00
2019-06-15T11:31:28.251Z,99117.00
2019-06-15T11:33:58.850Z,99121.00
2019-06-15T11:36:29.403Z,99129.00
2019-06-15T11:39:00.038Z,99132.00
2019-06-15T11:41:30.553Z,99137.00
2019-06-15T11:44:02.345Z,99120.00
2019-06-15T11:46:32.959Z,99127.00
2019-06-15T11:49:03.530Z,99123.00
2019-06-15T11:51:34.093Z,99129.00
2019-06-15T11:54:06.065Z,99134.00
2019-06-15T11:56:36.668Z,99132.00
2019-06-15T11:59:07.363Z,99131.00
2019-06-15T12:01:37.939Z,99137.00
2019-06-15T12:04:08.542Z,99122.00
2019-06-15T12:06:39.182Z,99146.00
2019-06-15T12:09:10.291Z,99145.00
2019-06-15T12:11:40.815Z,99143.00
2019-06-15T12:14:12.298Z,99147.00
2019-06-15T12:16:42.850Z,99148.00
2019-06-15T12:19:15.394Z,99143.00
2019-06-15T12:21:45.944Z,99147.00
2019-06-15T12:24:16.517Z,99140.00
2019-06-15T12:26:47.184Z,99143.00
2019-06-15T12:29:17.781Z,99144.00
2019-06-15T12:31:50.130Z,99150.00
2019-06-15T12:34:21.270Z,99152.00
2019-06-15T12:36:51.811Z,99152.00
2019-06-15T12:39:22.391Z,99154.00
2019-06-15T12:41:53.171Z,99159.00
2019-06-15T12:44:23.962Z,99154.00
2019-06-15T12:46:54.835Z,99159.00
2019-06-15T12:49:25.397Z,99164.00
2019-06-15T12:51:55.948Z,99156.00
2019-06-15T12:54:26.557Z,99158.00
2019-06-15T12:56:57.116Z,99162.00
2019-06-15T12:59:27.681Z,99168.00
2019-06-15T13:01:58.264Z,99167.00
2019-06-15T13:04:31.818Z,99158.00
2019-06-15T13:07:02.371Z,99166.00
2019-06-15T13:09:32.958Z,99164.00
2019-06-15T13:12:03.631Z,99165.00
2019-06-15T13:14:35.392Z,99168.00
2019-06-15T13:17:05.932Z,99173.00
2019-06-15T13:19:37.607Z,99173.00
2019-06-15T13:22:08.161Z,99167.00
2019-06-15T13:24:38.695Z,99179.00
2019-06-15T13:27:09.283Z,99175.00
2019-06-15T13:29:40.019Z,99181.00
2019-06-15T13:32:10.560Z,99180.00
2019-06-15T13:34:41.702Z,99172.00
2019-06-15T13:37:12.287Z,99175.00
2019-06-15T13:39:42.875Z,99183.00
2019-06-15T13:42:13.415Z,99183.00
2019-06-15T13:44:44.080Z,99187.00
2019-06-15T13:47:14.632Z,99199.00
2019-06-15T13:49:45.260Z,99206.00
2019-06-15T13:52:15.910Z,99209.00
2019-06-15T13:54:47.938Z,99204.00
2019-06-15T13:57:18.532Z,99208.00
2019-06-15T13:59:49.098Z,99205.00
2019-06-15T14:02:21.155Z,99216.00
2019-06-15T14:04:51.678Z,99225.00
2019-06-15T14:07:22.252Z,99237.00
2019-06-15T14:09:55.225Z,99231.00
2019-06-15T14:12:26.924Z,99233.00
2019-06-15T14:14:57.492Z,99231.00
2019-06-15T14:17:28.274Z,99236.00
2019-06-15T14:20:00.283Z,99253.00
2019-06-15T14:22:30.875Z,99249.00
2019-06-15T14:25:01.665Z,99249.00
2019-06-15T14:27:32.394Z,99257.00
2019-06-15T14:30:04.351Z,99253.00
2019-06-15T14:32:34.954Z,99257.00
2019-06-15T14:35:05.848Z,99254.00
2019-06-15T14:37:36.462Z,99258.00
2019-06-15T14:40:09.587Z,99264.00
2019-06-15T14:42:41.628Z,99254.00
2019-06-15T14:45:14.406Z,99265.00
2019-06-15T14:47:44.978Z,99263.00
2019-06-15T14:50:15.789Z,99269.00
2019-06-15T14:52:47.651Z,99264.00
2019-06-15T14:55:18.542Z,99266.00
2019-06-15T14:57:49.078Z,99258.00
2019-06-15T15:00:20.964Z,99261.00
2019-06-15T15:02:52.801Z,99258.00
2019-06-15T15:05:23.356Z,99258.00
2019-06-15T15:07:56.136Z,99258.00
2019-06-15T15:10:26.795Z,99252.00
2019-06-15T15:12:57.503Z,99248.00
2019-06-15T15:15:28.066Z,99243.00
2019-06-15T15:17:58.662Z,99244.00
2019-06-15T15:20:31.116Z,99237.00
2019-06-15T15:23:01.685Z,99237.00
2019-06-15T15:25:32.256Z,99243.00
2019-06-15T15:28:02.836Z,99237.00
2019-06-15T15:30:42.882Z,99243.00
2019-06-15T15:33:13.500Z,99240.00
2019-06-15T15:35:46.449Z,99241.00
2019-06-15T15:38:16.416Z,99242.00
2019-06-15T15:40:47.080Z,99241.00
2019-06-15T15:43:17.762Z,99247.00
2019-06-15T15:45:48.361Z,99254.00
2019-06-15T15:48:21.067Z,99248.00
2019-06-15T15:50:51.165Z,99252.00
2019-06-15T15:53:21.772Z,99261.00
2019-06-15T15:55:52.321Z,99256.00
2019-06-15T15:58:24.198Z,99261.00
2019-06-15T16:00:57.171Z,99260.00
2019-06-15T16:03:27.828Z,99262.00
2019-06-15T16:06:02.048Z,99267.00
2019-06-15T16:08:32.603Z,99261.00
2019-06-15T16:11:03.655Z,99262.00
2019-06-15T16:13:34.246Z,99251.00
2019-06-15T16:16:04.891Z,99257.00
2019-06-15T16:18:36.499Z,99251.00
2019-06-15T16:21:07.353Z,99247.00
2019-06-15T16:23:39.408Z,99252.00
2019-06-15T16:26:09.985Z,99252.00
2019-06-15T16:28:40.661Z,99250.00
2019-06-15T16:31:13.813Z,99258.00
2019-06-15T16:33:46.310Z,99267.00
2019-06-15T16:36:36.532Z,99275.00
2019-06-15T16:39:08.677Z,99275.00
2019-06-15T16:41:40.547Z,99285.00
2019-06-15T16:44:11.214Z,99285.00
2019-06-15T16:46:41.776Z,99286.00
2019-06-15T16:49:12.453Z,99277.00
2019-06-15T16:51:43.019Z,99287.00
2019-06-15T16:54:13.589Z,99283.00
2019-06-15T16:56:46.406Z,99297.00
2019-06-15T16:59:16.436Z,99292.00
2019-06-15T17:01:46.992Z,99290.00
2019-06-15T17:04:18.769Z,99298.00
2019-06-15T17:06:49.312Z,99306.00
2019-06-15T17:09:19.915Z,99300.00
2019-06-15T17:11:50.455Z,99310.00
2019-06-15T17:14:21.039Z,99314.00
2019-06-15T17:16:51.592Z,99320.00
2019-06-15T17:19:22.289Z,99327.00
2019-06-15T17:21:52.832Z,99334.00
2019-06-15T17:24:23.390Z,99336.00
2019-06-15T17:26:57.042Z,99344.00
2019-06-15T17:29:28.328Z,99343.00
2019-06-15T17:31:58.870Z,99350.00
2019-06-15T17:34:29.471Z,99352.00
2019-06-15T17:37:00.034Z,99357.00
2019-06-15T17:39:30.668Z,99360.00
2019-06-15T17:42:01.189Z,99358.00
2019-06-15T17:44:31.738Z,99355.00
2019-06-15T17:47:02.383Z,99363.00
2019-06-15T17:49:34.045Z,99364.00
2019-06-15T17:52:06.706Z,99356.00
2019-06-15T17:54:37.448Z,99355.00
2019-06-15T17:57:09.392Z,99355.00
2019-06-15T17:59:39.956Z,99352.00
2019-06-15T18:02:12.366Z,99357.00
2019-06-15T18:04:44.144Z,99344.00
2019-06-15T18:07:16.823Z,99355.00
2019-06-15T18:09:47.702Z,99349.00
2019-06-15T18:12:18.256Z,99342.00
2019-06-15T18:14:48.864Z,99346.00
2019-06-15T18:17:19.452Z,99341.00
2019-06-15T18:19:50.089Z,99341.00
2019-06-15T18:22:20.652Z,99347.00
2019-06-15T18:24:52.751Z,99346.00
2019-06-15T18:27:26.291Z,99349.00
2019-06-15T18:29:55.865Z,99347.00
2019-06-15T18:32:26.552Z,99343.00
2019-06-15T18:34:57.105Z,99334.00
2019-06-15T18:37:29.064Z,99342.00
2019-06-15T18:39:59.667Z,99345.00
2019-06-15T18:42:30.248Z,99351.00
2019-06-15T18:45:00.842Z,99354.00
2019-06-15T18:47:32.863Z,99359.00
2019-06-15T18:50:03.553Z,99368.00
2019-06-15T18:52:34.160Z,99374.00
2019-06-15T18:55:05.046Z,99378.00
2019-06-15T18:57:37.174Z,99386.00
2019-06-15T19:00:09.380Z,99390.00
2019-06-15T19:02:41.792Z,99384.00
2019-06-15T19:05:12.634Z,99383.00
2019-06-15T19:07:43.214Z,99393.00
2019-06-15T19:10:16.752Z,99381.00
2019-06-15T19:12:47.351Z,99397.00
2019-06-15T19:15:17.904Z,99398.00
2019-06-15T19:17:48.652Z,99401.00
2019-06-15T19:20:19.346Z,99404.00
2019-06-15T19:22:49.928Z,99415.00
2019-06-15T19:25:20.473Z,99414.00
2019-06-15T19:27:51.131Z,99427.00
2019-06-15T19:30:22.211Z,99434.00
2019-06-15T19:32:52.940Z,99442.00
2019-06-15T19:35:26.208Z,99462.00
2019-06-15T19:37:56.701Z,99465.00
2019-06-15T19:40:27.449Z,99466.00
2019-06-15T19:42:58.135Z,99479.00
2019-06-15T19:45:28.704Z,99481.00
2019-06-15T19:47:59.312Z,99482.00
2019-06-15T19:50:31.345Z,99486.00
2019-06-15T19:53:01.901Z,99491.00
2019-06-15T19:55:32.557Z,99489.00
2019-06-15T19:58:06.897Z,99495.00
2019-06-15T20:00:36.866Z,99491.00
2019-06-15T20:03:07.486Z,99483.00
2019-06-15T20:05:38.019Z,99486.00
2019-06-15T20:08:10.070Z,99477.00
2019-06-15T20:10:40.816Z,99480.00
2019-06-15T20:13:11.431Z,99481.00
2019-06-15T20:15:41.995Z,99486.00
2019-06-15T20:18:12.564Z,99489.00
2019-06-15T20:20:43.101Z,99488.00
2019-06-15T20:23:13.706Z,99505.00
2019-06-15T20:25:46.816Z,99507.00
2019-06-15T20:28:18.399Z,99506.00
2019-06-15T20:30:49.438Z,99507.00
2019-06-15T20:33:20.355Z,99511.00
2019-06-15T20:35:51.903Z,99513.00
2019-06-15T20:38:23.323Z,99519.00
2019-06-15T20:40:56.383Z,99519.00
2019-06-15T20:43:27.355Z,99519.00
2019-06-15T20:45:59.584Z,99532.00
2019-06-15T20:48:31.751Z,99522.00
2019-06-15T20:51:02.327Z,99531.00
2019-06-15T20:53:33.124Z,99533.00
2019-06-15T20:56:06.676Z,99530.00
2019-06-15T20:58:37.500Z,99536.00
2019-06-15T21:01:08.251Z,99537.00
2019-06-15T21:03:43.016Z,99549.00
2019-06-15T21:06:12.418Z,99546.00
2019-06-15T21:08:43.116Z,99556.00
2019-06-15T21:11:17.089Z,99557.00
2019-06-15T21:13:47.443Z,99570.00
2019-06-15T21:16:17.978Z,99571.00
2019-06-15T21:18:48.570Z,99579.00
2019-06-15T21:21:21.717Z,99583.00
2019-06-15T21:23:53.494Z,99582.00
2019-06-15T21:26:26.846Z,99595.00
2019-06-15T21:28:56.664Z,99603.00
2019-06-15T21:31:27.353Z,99608.00
2019-06-15T21:33:57.996Z,99615.00
2019-06-15T21:36:28.637Z,99610.00
2019-06-15T21:38:59.212Z,99613.00
2019-06-15T21:41:29.862Z,99613.00
2019-06-15T21:44:00.446Z,99629.00
2019-06-15T21:46:31.019Z,99630.00
2019-06-15T21:49:01.613Z,99635.00
2019-06-15T21:51:32.484Z,99642.00
2019-06-15T21:54:03.276Z,99646.00
2019-06-15T21:56:36.489Z,99645.00
2019-06-15T21:59:07.377Z,99643.00
2019-06-15T22:01:38.714Z,99647.00
2019-06-15T22:04:09.347Z,99649.00
2019-06-15T22:06:39.856Z,99650.00
2019-06-15T22:09:13.791Z,99657.00
2019-06-15T22:11:46.954Z,99652.00
2019-06-15T22:14:17.827Z,99654.00
2019-06-15T22:16:49.500Z,99661.00
2019-06-15T22:19:20.063Z,99664.00
2019-06-15T22:21:50.675Z,99657.00
2019-06-15T22:24:22.691Z,99663.00
2019-06-15T22:26:53.235Z,99660.00
2019-06-15T22:29:23.811Z,99660.00
2019-06-15T22:31:56.282Z,99662.00
2019-06-15T22:34:26.733Z,99664.00
2019-06-15T22:36:58.404Z,99680.00
2019-06-15T22:39:28.958Z,99680.00
2019-06-15T22:41:59.508Z,99688.00
2019-06-15T22:44:30.201Z,99689.00
2019-06-15T22:47:00.742Z,99685.00
2019-06-15T22:49:31.288Z,99692.00
2019-06-15T22:52:02.015Z,99695.00
2019-06-15T22:54:32.549Z,99702.00
2019-06-15T22:57:03.129Z,99707.00
2019-06-15T22:59:33.715Z,99715.00
2019-06-15T23:02:04.320Z,99713.00
2019-06-15T23:04:37.112Z,99719.00
2019-06-15T23:07:07.140Z,99726.00
2019-06-15T23:09:37.719Z,99723.00
2019-06-15T23:12:08.289Z,99734.00
2019-06-15T23:14:38.828Z,99736.00
2019-06-15T23:17:09.399Z,99752.00
2019-06-15T23:19:39.939Z,99749.00
2019-06-15T23:22:11.939Z,99735.00
2019-06-15T23:24:43.959Z,99729.00
2019-06-15T23:27:16.533Z,99728.00
2019-06-15T23:29:48.200Z,99733.00
2019-06-15T23:32:20.873Z,99733.00
2019-06-15T23:34:51.270Z,99728.00
2019-06-15T23:37:23.155Z,99733.00
2019-06-15T23:40:11.316Z,99724.00
2019-06-15T23:42:41.877Z,99728.00
2019-06-15T23:45:12.828Z,99728.00
2019-06-15T23:47:43.380Z,99725.00
2019-06-15T23:50:16.797Z,99736.00
2019-06-15T23:52:47.068Z,99732.00
2019-06-15T23:55:18.073Z,99725.00
2019-06-15T23:57:48.719Z,99721.00
